sensor_id;sensor_type;location;lat;lon;timestamp;pressure;altitude;pressure_sealevel;temperature;humidity
10948;BME280;5526;42.070;24.752;2022-10-17T00:00:56;100348.16;;;10.37;79.52
10948;BME280;5526;42.070;24.752;2022-10-17T00:03:24;100270.41;;;9.81;79.43
10948;BME280;5526;42.070;24.752;2022-10-17T00:05:53;100286.19;;;9.99;80.58
10948;BME280;5526;42.070;24.752;2022-10-17T00:08:20;100257.69;;;9.78;81.44
10948;BME280;5526;42.070;24.752;2022-10-17T00:10:55;100336.75;;;10.25;80.90
10948;BME280;5526;42.070;24.752;2022-10-17T00:13:24;100284.94;;;9.83;81.36
10948;BME280;5526;42.070;24.752;2022-10-17T00:15:52;100342.25;;;10.17;81.46
10948;BME280;5526;42.070;24.752;2022-10-17T00:18:20;100340.44;;;10.18;81.67
10948;BME280;5526;42.070;24.752;2022-10-17T00:20:47;100330.22;;;10.10;82.14
10948;BME280;5526;42.070;24.752;2022-10-17T00:23:17;100248.16;;;9.59;82.20
10948;BME280;5526;42.070;24.752;2022-10-17T00:25:45;100347.31;;;10.19;82.98
10948;BME280;5526;42.070;24.752;2022-10-17T00:28:14;100293.50;;;9.97;81.74
10948;BME280;5526;42.070;24.752;2022-10-17T00:30:41;100369.25;;;10.31;81.44
10948;BME280;5526;42.070;24.752;2022-10-17T00:33:09;100277.97;;;9.71;80.65
10948;BME280;5526;42.070;24.752;2022-10-17T00:35:37;100279.56;;;9.72;80.50
10948;BME280;5526;42.070;24.752;2022-10-17T00:38:04;100260.69;;;9.57;80.36
10948;BME280;5526;42.070;24.752;2022-10-17T00:40:33;100350.22;;;10.11;80.74
10948;BME280;5526;42.070;24.752;2022-10-17T00:43:01;100297.66;;;9.86;80.82
10948;BME280;5526;42.070;24.752;2022-10-17T00:45:30;100282.72;;;9.80;80.90
10948;BME280;5526;42.070;24.752;2022-10-17T00:47:59;100380.38;;;10.33;80.58
10948;BME280;5526;42.070;24.752;2022-10-17T00:50:29;100363.38;;;10.11;81.07
10948;BME280;5526;42.070;24.752;2022-10-17T00:53:00;100364.84;;;10.00;81.85
10948;BME280;5526;42.070;24.752;2022-10-17T00:55:31;100289.03;;;9.55;83.46
10948;BME280;5526;42.070;24.752;2022-10-17T00:58:02;100323.06;;;9.68;83.05
10948;BME280;5526;42.070;24.752;2022-10-17T01:00:31;100314.88;;;9.58;83.49
10948;BME280;5526;42.070;24.752;2022-10-17T01:02:59;100309.28;;;9.48;83.26
10948;BME280;5526;42.070;24.752;2022-10-17T01:05:27;100308.44;;;9.54;83.14
10948;BME280;5526;42.070;24.752;2022-10-17T01:07:55;100295.19;;;9.42;83.09
10948;BME280;5526;42.070;24.752;2022-10-17T01:10:29;100316.69;;;9.57;83.51
10948;BME280;5526;42.070;24.752;2022-10-17T01:13:07;100338.47;;;9.64;83.56
10948;BME280;5526;42.070;24.752;2022-10-17T01:15:47;100309.50;;;9.46;83.98
10948;BME280;5526;42.070;24.752;2022-10-17T01:18:25;100307.03;;;9.27;84.62
10948;BME280;5526;42.070;24.752;2022-10-17T01:21:08;100287.63;;;8.97;85.78
10948;BME280;5526;42.070;24.752;2022-10-17T01:26:47;100318.47;;;9.08;85.59
10948;BME280;5526;42.070;24.752;2022-10-17T01:29:40;100256.03;;;8.78;85.41
10948;BME280;5526;42.070;24.752;2022-10-17T01:32:16;100289.44;;;8.96;85.06
10948;BME280;5526;42.070;24.752;2022-10-17T01:34:51;100290.69;;;8.87;85.09
10948;BME280;5526;42.070;24.752;2022-10-17T01:37:26;100291.72;;;8.86;85.13
10948;BME280;5526;42.070;24.752;2022-10-17T01:40:00;100356.72;;;9.28;85.30
10948;BME280;5526;42.070;24.752;2022-10-17T01:42:35;100299.34;;;8.94;85.63
10948;BME280;5526;42.070;24.752;2022-10-17T01:45:10;100298.28;;;9.02;86.02
10948;BME280;5526;42.070;24.752;2022-10-17T01:47:42;100291.06;;;8.97;86.30
10948;BME280;5526;42.070;24.752;2022-10-17T01:50:16;100377.97;;;9.58;86.07
10948;BME280;5526;42.070;24.752;2022-10-17T01:52:46;100274.31;;;8.92;85.76
10948;BME280;5526;42.070;24.752;2022-10-17T01:55:19;100272.75;;;8.84;86.36
10948;BME280;5526;42.070;24.752;2022-10-17T01:57:51;100308.59;;;9.03;86.03
10948;BME280;5526;42.070;24.752;2022-10-17T02:00:23;100367.28;;;9.22;86.17
10948;BME280;5526;42.070;24.752;2022-10-17T02:02:56;100359.78;;;8.88;87.92
10948;BME280;5526;42.070;24.752;2022-10-17T02:05:28;100309.44;;;8.59;88.16
10948;BME280;5526;42.070;24.752;2022-10-17T02:07:57;100389.19;;;9.03;88.28
10948;BME280;5526;42.070;24.752;2022-10-17T02:10:31;100329.97;;;8.62;88.67
10948;BME280;5526;42.070;24.752;2022-10-17T02:13:08;100337.22;;;8.73;88.29
10948;BME280;5526;42.070;24.752;2022-10-17T02:15:51;100377.09;;;8.95;88.38
10948;BME280;5526;42.070;24.752;2022-10-17T02:18:35;100370.28;;;8.88;88.30
10948;BME280;5526;42.070;24.752;2022-10-17T02:21:14;100392.59;;;9.03;88.71
10948;BME280;5526;42.070;24.752;2022-10-17T02:23:51;100364.47;;;8.72;87.88
10948;BME280;5526;42.070;24.752;2022-10-17T02:26:25;100372.28;;;8.85;87.63
10948;BME280;5526;42.070;24.752;2022-10-17T02:29:02;100361.22;;;8.70;87.58
10948;BME280;5526;42.070;24.752;2022-10-17T02:31:35;100387.63;;;8.88;87.39
10948;BME280;5526;42.070;24.752;2022-10-17T02:34:08;100365.47;;;8.78;86.77
10948;BME280;5526;42.070;24.752;2022-10-17T02:36:41;100339.91;;;8.60;86.67
10948;BME280;5526;42.070;24.752;2022-10-17T02:39:11;100340.91;;;8.59;86.87
10948;BME280;5526;42.070;24.752;2022-10-17T02:41:40;100415.66;;;9.01;86.91
10948;BME280;5526;42.070;24.752;2022-10-17T02:44:09;100330.66;;;8.51;86.74
10948;BME280;5526;42.070;24.752;2022-10-17T02:46:39;100394.69;;;8.88;86.42
10948;BME280;5526;42.070;24.752;2022-10-17T02:49:15;100332.06;;;8.54;86.00
10948;BME280;5526;42.070;24.752;2022-10-17T02:51:46;100378.41;;;8.73;86.49
10948;BME280;5526;42.070;24.752;2022-10-17T02:54:19;100401.59;;;8.82;86.80
10948;BME280;5526;42.070;24.752;2022-10-17T02:56:52;100350.81;;;8.51;86.70
10948;BME280;5526;42.070;24.752;2022-10-17T02:59:22;100363.13;;;8.50;86.81
10948;BME280;5526;42.070;24.752;2022-10-17T03:01:51;100350.03;;;8.44;87.16
10948;BME280;5526;42.070;24.752;2022-10-17T03:04:20;100385.53;;;8.59;87.88
10948;BME280;5526;42.070;24.752;2022-10-17T03:06:48;100327.50;;;8.30;88.41
10948;BME280;5526;42.070;24.752;2022-10-17T03:09:16;100329.88;;;8.18;87.08
10948;BME280;5526;42.070;24.752;2022-10-17T03:11:43;100375.66;;;8.48;86.88
10948;BME280;5526;42.070;24.752;2022-10-17T03:14:11;100427.66;;;8.77;87.53
10948;BME280;5526;42.070;24.752;2022-10-17T03:16:39;100351.25;;;8.41;87.29
10948;BME280;5526;42.070;24.752;2022-10-17T03:19:06;100389.94;;;8.65;86.64
10948;BME280;5526;42.070;24.752;2022-10-17T03:21:35;100351.09;;;8.30;86.53
10948;BME280;5526;42.070;24.752;2022-10-17T03:24:03;100345.44;;;8.20;87.19
10948;BME280;5526;42.070;24.752;2022-10-17T03:26:31;100405.13;;;8.57;87.56
10948;BME280;5526;42.070;24.752;2022-10-17T03:28:59;100343.63;;;8.20;87.22
10948;BME280;5526;42.070;24.752;2022-10-17T03:31:26;100363.16;;;8.37;87.15
10948;BME280;5526;42.070;24.752;2022-10-17T03:33:53;100431.91;;;8.78;87.40
10948;BME280;5526;42.070;24.752;2022-10-17T03:36:21;100380.28;;;8.46;87.32
10948;BME280;5526;42.070;24.752;2022-10-17T03:38:52;100344.22;;;8.22;86.94
10948;BME280;5526;42.070;24.752;2022-10-17T03:41:20;100411.34;;;8.56;86.89
10948;BME280;5526;42.070;24.752;2022-10-17T03:43:48;100376.28;;;8.37;86.82
10948;BME280;5526;42.070;24.752;2022-10-17T03:46:15;100458.34;;;8.83;86.45
10948;BME280;5526;42.070;24.752;2022-10-17T03:48:43;100423.66;;;8.62;87.23
10948;BME280;5526;42.070;24.752;2022-10-17T03:51:10;100366.22;;;8.21;86.78
10948;BME280;5526;42.070;24.752;2022-10-17T03:53:38;100381.38;;;8.26;87.44
10948;BME280;5526;42.070;24.752;2022-10-17T03:56:11;100421.28;;;8.47;87.92
10948;BME280;5526;42.070;24.752;2022-10-17T03:58:39;100392.81;;;8.31;88.22
10948;BME280;5526;42.070;24.752;2022-10-17T04:01:08;100380.56;;;8.25;87.97
10948;BME280;5526;42.070;24.752;2022-10-17T04:03:37;100393.84;;;8.30;87.88
10948;BME280;5526;42.070;24.752;2022-10-17T04:06:05;100374.88;;;8.15;88.90
10948;BME280;5526;42.070;24.752;2022-10-17T04:08:33;100360.75;;;8.10;88.65
10948;BME280;5526;42.070;24.752;2022-10-17T04:11:02;100440.22;;;8.49;89.48
10948;BME280;5526;42.070;24.752;2022-10-17T04:13:32;100403.13;;;8.39;88.85
10948;BME280;5526;42.070;24.752;2022-10-17T04:16:02;100455.72;;;8.70;88.66
10948;BME280;5526;42.070;24.752;2022-10-17T04:18:30;100405.94;;;8.44;88.84
10948;BME280;5526;42.070;24.752;2022-10-17T04:21:00;100408.38;;;8.46;88.70
10948;BME280;5526;42.070;24.752;2022-10-17T04:23:27;100417.63;;;8.48;89.25
10948;BME280;5526;42.070;24.752;2022-10-17T04:25:55;100446.25;;;8.63;89.22
10948;BME280;5526;42.070;24.752;2022-10-17T04:28:23;100372.47;;;8.07;89.47
10948;BME280;5526;42.070;24.752;2022-10-17T04:30:56;100357.16;;;8.11;89.74
10948;BME280;5526;42.070;24.752;2022-10-17T04:33:24;100401.31;;;8.33;89.64
10948;BME280;5526;42.070;24.752;2022-10-17T04:35:56;100341.44;;;7.91;89.94
10948;BME280;5526;42.070;24.752;2022-10-17T04:38:24;100377.09;;;8.18;90.21
10948;BME280;5526;42.070;24.752;2022-10-17T04:40:52;100461.41;;;8.67;90.07
10948;BME280;5526;42.070;24.752;2022-10-17T04:43:20;100409.97;;;8.27;90.73
10948;BME280;5526;42.070;24.752;2022-10-17T04:45:47;100432.56;;;8.41;90.32
10948;BME280;5526;42.070;24.752;2022-10-17T04:48:16;100434.56;;;8.52;89.96
10948;BME280;5526;42.070;24.752;2022-10-17T04:50:52;100409.97;;;8.40;89.42
10948;BME280;5526;42.070;24.752;2022-10-17T04:53:20;100368.41;;;8.11;89.65
10948;BME280;5526;42.070;24.752;2022-10-17T04:55:48;100429.75;;;8.49;89.59
10948;BME280;5526;42.070;24.752;2022-10-17T04:58:16;100452.91;;;8.72;89.41
10948;BME280;5526;42.070;24.752;2022-10-17T05:00:43;100397.28;;;8.37;89.35
10948;BME280;5526;42.070;24.752;2022-10-17T05:03:11;100449.47;;;8.71;89.16
10948;BME280;5526;42.070;24.752;2022-10-17T05:05:41;100440.97;;;8.76;89.41
10948;BME280;5526;42.070;24.752;2022-10-17T05:08:10;100444.38;;;8.89;88.88
10948;BME280;5526;42.070;24.752;2022-10-17T05:10:38;100437.09;;;8.92;88.29
10948;BME280;5526;42.070;24.752;2022-10-17T05:13:07;100467.72;;;9.17;87.95
10948;BME280;5526;42.070;24.752;2022-10-17T05:15:35;100455.19;;;9.13;87.57
10948;BME280;5526;42.070;24.752;2022-10-17T05:18:03;100457.56;;;9.21;87.40
10948;BME280;5526;42.070;24.752;2022-10-17T05:20:31;100497.66;;;9.54;87.12
10948;BME280;5526;42.070;24.752;2022-10-17T05:23:01;100502.00;;;9.73;86.62
10948;BME280;5526;42.070;24.752;2022-10-17T05:25:29;100435.94;;;9.25;86.57
10948;BME280;5526;42.070;24.752;2022-10-17T05:27:56;100445.22;;;9.28;86.73
10948;BME280;5526;42.070;24.752;2022-10-17T05:30:24;100498.53;;;9.79;86.58
10948;BME280;5526;42.070;24.752;2022-10-17T05:32:52;100436.97;;;9.62;86.38
10948;BME280;5526;42.070;24.752;2022-10-17T05:35:20;100477.13;;;10.00;84.58
10948;BME280;5526;42.070;24.752;2022-10-17T05:37:48;100512.16;;;10.31;84.74
10948;BME280;5526;42.070;24.752;2022-10-17T05:40:17;100547.28;;;10.68;83.27
10948;BME280;5526;42.070;24.752;2022-10-17T05:42:45;100516.13;;;10.40;83.14
10948;BME280;5526;42.070;24.752;2022-10-17T05:45:14;100476.41;;;9.93;84.84
10948;BME280;5526;42.070;24.752;2022-10-17T05:47:42;100511.72;;;10.03;84.74
10948;BME280;5526;42.070;24.752;2022-10-17T05:50:09;100474.56;;;9.93;84.55
10948;BME280;5526;42.070;24.752;2022-10-17T05:52:37;100502.94;;;10.22;83.65
10948;BME280;5526;42.070;24.752;2022-10-17T05:55:06;100531.00;;;10.53;82.44
10948;BME280;5526;42.070;24.752;2022-10-17T05:57:35;100485.84;;;10.00;82.72
10948;BME280;5526;42.070;24.752;2022-10-17T06:00:04;100503.69;;;9.98;84.36
10948;BME280;5526;42.070;24.752;2022-10-17T06:02:32;100515.88;;;10.17;83.72
10948;BME280;5526;42.070;24.752;2022-10-17T06:04:59;100524.34;;;10.26;83.39
10948;BME280;5526;42.070;24.752;2022-10-17T06:07:27;100522.53;;;10.51;82.36
10948;BME280;5526;42.070;24.752;2022-10-17T06:09:54;100575.22;;;10.93;81.72
10948;BME280;5526;42.070;24.752;2022-10-17T06:12:23;100537.09;;;10.96;81.17
10948;BME280;5526;42.070;24.752;2022-10-17T06:14:52;100555.34;;;11.15;80.47
10948;BME280;5526;42.070;24.752;2022-10-17T06:17:20;100537.75;;;11.09;80.04
10948;BME280;5526;42.070;24.752;2022-10-17T06:19:48;100569.59;;;10.90;81.68
10948;BME280;5526;42.070;24.752;2022-10-17T06:22:16;100591.94;;;11.23;79.85
10948;BME280;5526;42.070;24.752;2022-10-17T06:24:43;100581.41;;;11.23;79.56
10948;BME280;5526;42.070;24.752;2022-10-17T06:27:11;100534.59;;;11.01;79.08
10948;BME280;5526;42.070;24.752;2022-10-17T06:29:39;100535.22;;;10.78;81.41
10948;BME280;5526;42.070;24.752;2022-10-17T06:32:08;100562.25;;;10.92;81.81
10948;BME280;5526;42.070;24.752;2022-10-17T06:34:36;100534.94;;;10.68;81.93
10948;BME280;5526;42.070;24.752;2022-10-17T06:37:03;100561.00;;;10.94;81.52
10948;BME280;5526;42.070;24.752;2022-10-17T06:39:31;100515.84;;;10.73;81.40
10948;BME280;5526;42.070;24.752;2022-10-17T06:42:01;100524.81;;;11.08;80.59
10948;BME280;5526;42.070;24.752;2022-10-17T06:44:30;100567.81;;;11.62;79.30
10948;BME280;5526;42.070;24.752;2022-10-17T06:46:57;100513.22;;;11.09;78.50
10948;BME280;5526;42.070;24.752;2022-10-17T06:49:27;100586.19;;;11.69;78.68
10948;BME280;5526;42.070;24.752;2022-10-17T06:51:55;100543.69;;;11.41;77.63
10948;BME280;5526;42.070;24.752;2022-10-17T06:54:23;100575.97;;;11.90;76.46
10948;BME280;5526;42.070;24.752;2022-10-17T06:56:50;100522.16;;;11.62;75.94
10948;BME280;5526;42.070;24.752;2022-10-17T06:59:18;100557.72;;;11.89;75.17
10948;BME280;5526;42.070;24.752;2022-10-17T07:01:45;100529.44;;;12.07;73.70
10948;BME280;5526;42.070;24.752;2022-10-17T07:04:13;100575.91;;;12.61;72.79
10948;BME280;5526;42.070;24.752;2022-10-17T07:06:42;100601.59;;;13.07;71.05
10948;BME280;5526;42.070;24.752;2022-10-17T07:09:10;100553.19;;;12.83;69.28
10948;BME280;5526;42.070;24.752;2022-10-17T07:11:38;100568.03;;;13.07;67.80
10948;BME280;5526;42.070;24.752;2022-10-17T07:14:06;100617.53;;;13.46;67.63
10948;BME280;5526;42.070;24.752;2022-10-17T07:16:34;100596.25;;;13.53;67.50
10948;BME280;5526;42.070;24.752;2022-10-17T07:19:01;100592.94;;;13.85;66.61
10948;BME280;5526;42.070;24.752;2022-10-17T07:21:29;100587.03;;;13.95;66.06
10948;BME280;5526;42.070;24.752;2022-10-17T07:23:59;100569.97;;;13.74;65.41
10948;BME280;5526;42.070;24.752;2022-10-17T07:26:26;100615.88;;;14.08;66.29
10948;BME280;5526;42.070;24.752;2022-10-17T07:28:54;100586.22;;;13.66;66.21
10948;BME280;5526;42.070;24.752;2022-10-17T07:31:22;100624.09;;;13.95;65.93
10948;BME280;5526;42.070;24.752;2022-10-17T07:33:51;100567.28;;;14.14;64.19
10948;BME280;5526;42.070;24.752;2022-10-17T07:36:18;100618.97;;;14.44;64.49
10948;BME280;5526;42.070;24.752;2022-10-17T07:38:46;100577.06;;;14.41;62.92
10948;BME280;5526;42.070;24.752;2022-10-17T07:41:15;100583.50;;;14.78;61.79
10948;BME280;5526;42.070;24.752;2022-10-17T07:43:44;100640.44;;;15.42;60.30
10948;BME280;5526;42.070;24.752;2022-10-17T07:46:12;100567.81;;;15.31;58.75
10948;BME280;5526;42.070;24.752;2022-10-17T07:48:40;100579.91;;;15.60;57.95
10948;BME280;5526;42.070;24.752;2022-10-17T07:51:09;100579.09;;;15.60;56.75
10948;BME280;5526;42.070;24.752;2022-10-17T07:53:37;100590.31;;;15.67;57.33
10948;BME280;5526;42.070;24.752;2022-10-17T07:56:06;100584.50;;;15.91;56.22
10948;BME280;5526;42.070;24.752;2022-10-17T07:58:36;100604.63;;;15.87;55.12
10948;BME280;5526;42.070;24.752;2022-10-17T08:01:05;100568.03;;;15.46;57.03
10948;BME280;5526;42.070;24.752;2022-10-17T08:03:33;100560.63;;;15.70;56.00
10948;BME280;5526;42.070;24.752;2022-10-17T08:06:01;100567.25;;;15.94;55.40
10948;BME280;5526;42.070;24.752;2022-10-17T08:08:29;100546.97;;;16.09;54.51
10948;BME280;5526;42.070;24.752;2022-10-17T08:11:01;100623.53;;;16.65;53.14
10948;BME280;5526;42.070;24.752;2022-10-17T08:13:29;100591.94;;;16.42;53.91
10948;BME280;5526;42.070;24.752;2022-10-17T08:16:00;100549.69;;;16.41;52.86
10948;BME280;5526;42.070;24.752;2022-10-17T08:18:28;100572.06;;;16.81;52.01
10948;BME280;5526;42.070;24.752;2022-10-17T08:20:59;100563.63;;;16.94;51.56
10948;BME280;5526;42.070;24.752;2022-10-17T08:23:27;100601.47;;;17.07;50.83
10948;BME280;5526;42.070;24.752;2022-10-17T08:25:58;100605.44;;;16.99;50.69
10948;BME280;5526;42.070;24.752;2022-10-17T08:28:25;100639.94;;;16.94;51.40
10948;BME280;5526;42.070;24.752;2022-10-17T08:30:53;100569.91;;;16.78;50.69
10948;BME280;5526;42.070;24.752;2022-10-17T08:33:29;100570.00;;;16.93;49.80
10948;BME280;5526;42.070;24.752;2022-10-17T08:35:58;100593.34;;;17.28;49.62
10948;BME280;5526;42.070;24.752;2022-10-17T08:38:27;100617.06;;;17.35;49.94
10948;BME280;5526;42.070;24.752;2022-10-17T08:40:58;100576.44;;;17.44;50.19
10948;BME280;5526;42.070;24.752;2022-10-17T08:43:47;100567.50;;;17.75;47.15
10948;BME280;5526;42.070;24.752;2022-10-17T08:46:18;100605.97;;;18.14;47.44
10948;BME280;5526;42.070;24.752;2022-10-17T08:48:49;100606.53;;;18.26;47.13
10948;BME280;5526;42.070;24.752;2022-10-17T08:51:20;100585.72;;;18.23;47.21
10948;BME280;5526;42.070;24.752;2022-10-17T08:53:51;100551.59;;;18.05;47.48
10948;BME280;5526;42.070;24.752;2022-10-17T08:56:23;100595.66;;;18.63;46.17
10948;BME280;5526;42.070;24.752;2022-10-17T08:58:52;100580.72;;;18.37;46.22
10948;BME280;5526;42.070;24.752;2022-10-17T09:01:32;100590.84;;;18.60;45.25
10948;BME280;5526;42.070;24.752;2022-10-17T09:07:02;100536.19;;;18.37;43.67
10948;BME280;5526;42.070;24.752;2022-10-17T09:09:41;100597.25;;;18.84;44.45
10948;BME280;5526;42.070;24.752;2022-10-17T09:12:16;100610.28;;;19.15;43.85
10948;BME280;5526;42.070;24.752;2022-10-17T09:15:01;100579.31;;;19.09;42.75
10948;BME280;5526;42.070;24.752;2022-10-17T09:17:41;100571.34;;;18.89;42.47
10948;BME280;5526;42.070;24.752;2022-10-17T09:20:19;100607.34;;;19.07;41.98
10948;BME280;5526;42.070;24.752;2022-10-17T09:22:52;100558.56;;;18.76;41.70
10948;BME280;5526;42.070;24.752;2022-10-17T09:25:22;100528.44;;;18.71;41.70
10948;BME280;5526;42.070;24.752;2022-10-17T09:27:53;100566.25;;;19.13;41.05
10948;BME280;5526;42.070;24.752;2022-10-17T09:30:33;100602.53;;;19.34;41.51
10948;BME280;5526;42.070;24.752;2022-10-17T09:33:09;100574.19;;;19.38;41.21
10948;BME280;5526;42.070;24.752;2022-10-17T09:35:40;100553.38;;;19.35;40.24
10948;BME280;5526;42.070;24.752;2022-10-17T09:38:14;100606.66;;;19.70;39.68
10948;BME280;5526;42.070;24.752;2022-10-17T09:40:43;100523.25;;;19.24;40.48
10948;BME280;5526;42.070;24.752;2022-10-17T09:43:12;100534.06;;;19.58;38.85
10948;BME280;5526;42.070;24.752;2022-10-17T09:45:47;100527.28;;;19.80;38.34
10948;BME280;5526;42.070;24.752;2022-10-17T09:48:23;100550.44;;;19.95;37.10
10948;BME280;5526;42.070;24.752;2022-10-17T09:50:55;100593.44;;;19.98;35.37
10948;BME280;5526;42.070;24.752;2022-10-17T09:53:26;100542.22;;;19.81;35.29
10948;BME280;5526;42.070;24.752;2022-10-17T09:55:57;100537.06;;;19.95;34.82
10948;BME280;5526;42.070;24.752;2022-10-17T09:58:40;100537.41;;;20.27;32.48
10948;BME280;5526;42.070;24.752;2022-10-17T10:01:16;100511.47;;;20.27;31.42
10948;BME280;5526;42.070;24.752;2022-10-17T10:03:44;100529.16;;;20.52;30.34
10948;BME280;5526;42.070;24.752;2022-10-17T10:06:15;100575.66;;;20.95;28.23
10948;BME280;5526;42.070;24.752;2022-10-17T10:08:51;100497.25;;;20.60;28.70
10948;BME280;5526;42.070;24.752;2022-10-17T10:11:22;100511.88;;;20.68;29.38
10948;BME280;5526;42.070;24.752;2022-10-17T10:13:51;100537.19;;;20.52;28.43
10948;BME280;5526;42.070;24.752;2022-10-17T10:16:21;100546.84;;;20.48;28.52
10948;BME280;5526;42.070;24.752;2022-10-17T10:18:51;100488.31;;;20.08;28.28
10948;BME280;5526;42.070;24.752;2022-10-17T10:21:21;100498.72;;;20.19;28.59
10948;BME280;5526;42.070;24.752;2022-10-17T10:24:11;100546.78;;;20.58;27.37
10948;BME280;5526;42.070;24.752;2022-10-17T10:26:41;100493.94;;;20.45;28.21
10948;BME280;5526;42.070;24.752;2022-10-17T10:29:21;100505.19;;;20.70;28.34
10948;BME280;5526;42.070;24.752;2022-10-17T10:31:50;100491.34;;;20.92;27.41
10948;BME280;5526;42.070;24.752;2022-10-17T10:34:20;100492.78;;;21.08;26.92
10948;BME280;5526;42.070;24.752;2022-10-17T10:36:55;100529.00;;;21.24;26.72
10948;BME280;5526;42.070;24.752;2022-10-17T10:39:43;100486.63;;;21.26;25.68
10948;BME280;5526;42.070;24.752;2022-10-17T10:42:25;100475.63;;;21.51;26.79
10948;BME280;5526;42.070;24.752;2022-10-17T10:44:57;100476.06;;;21.77;26.89
10948;BME280;5526;42.070;24.752;2022-10-17T10:47:27;100457.81;;;21.79;26.49
10948;BME280;5526;42.070;24.752;2022-10-17T10:50:15;100473.47;;;21.90;26.37
10948;BME280;5526;42.070;24.752;2022-10-17T10:52:51;100524.09;;;22.10;25.84
10948;BME280;5526;42.070;24.752;2022-10-17T10:55:25;100499.28;;;22.18;27.00
10948;BME280;5526;42.070;24.752;2022-10-17T10:58:00;100467.34;;;22.03;25.78
10948;BME280;5526;42.070;24.752;2022-10-17T11:00:31;100471.94;;;21.84;26.84
10948;BME280;5526;42.070;24.752;2022-10-17T11:03:09;100472.03;;;22.11;26.73
10948;BME280;5526;42.070;24.752;2022-10-17T11:05:43;100458.72;;;22.06;25.75
10948;BME280;5526;42.070;24.752;2022-10-17T11:08:35;100476.97;;;22.04;26.51
10948;BME280;5526;42.070;24.752;2022-10-17T11:11:12;100486.06;;;22.22;27.64
10948;BME280;5526;42.070;24.752;2022-10-17T11:13:47;100494.03;;;21.95;28.06
10948;BME280;5526;42.070;24.752;2022-10-17T11:16:32;100489.94;;;21.97;27.62
10948;BME280;5526;42.070;24.752;2022-10-17T11:19:07;100488.66;;;21.95;27.46
10948;BME280;5526;42.070;24.752;2022-10-17T11:21:43;100482.53;;;22.26;27.16
10948;BME280;5526;42.070;24.752;2022-10-17T11:24:19;100477.88;;;22.32;27.23
10948;BME280;5526;42.070;24.752;2022-10-17T11:26:53;100494.25;;;21.98;27.76
10948;BME280;5526;42.070;24.752;2022-10-17T11:29:26;100453.34;;;21.74;28.13
10948;BME280;5526;42.070;24.752;2022-10-17T11:31:56;100438.75;;;21.80;27.25
10948;BME280;5526;42.070;24.752;2022-10-17T11:34:28;100495.69;;;22.09;27.07
10948;BME280;5526;42.070;24.752;2022-10-17T11:37:03;100465.63;;;21.94;27.57
10948;BME280;5526;42.070;24.752;2022-10-17T11:39:42;100472.00;;;22.30;26.97
10948;BME280;5526;42.070;24.752;2022-10-17T11:42:16;100429.59;;;22.00;27.81
10948;BME280;5526;42.070;24.752;2022-10-17T11:44:45;100458.28;;;22.31;28.14
10948;BME280;5526;42.070;24.752;2022-10-17T11:47:30;100434.78;;;22.10;27.75
10948;BME280;5526;42.070;24.752;2022-10-17T11:50:04;100400.38;;;21.85;28.66
10948;BME280;5526;42.070;24.752;2022-10-17T11:52:37;100474.72;;;22.43;29.65
10948;BME280;5526;42.070;24.752;2022-10-17T11:55:13;100465.25;;;22.46;27.57
10948;BME280;5526;42.070;24.752;2022-10-17T11:57:53;100420.53;;;22.28;27.10
10948;BME280;5526;42.070;24.752;2022-10-17T12:00:30;100445.53;;;22.55;27.69
10948;BME280;5526;42.070;24.752;2022-10-17T12:03:11;100416.94;;;22.32;28.50
10948;BME280;5526;42.070;24.752;2022-10-17T12:05:48;100416.81;;;22.10;28.97
10948;BME280;5526;42.070;24.752;2022-10-17T12:08:29;100423.31;;;22.36;29.20
10948;BME280;5526;42.070;24.752;2022-10-17T12:11:06;100417.63;;;22.24;28.25
10948;BME280;5526;42.070;24.752;2022-10-17T12:13:48;100417.56;;;21.97;28.59
10948;BME280;5526;42.070;24.752;2022-10-17T12:16:49;100419.88;;;22.04;29.12
10948;BME280;5526;42.070;24.752;2022-10-17T12:19:25;100395.28;;;22.15;28.97
10948;BME280;5526;42.070;24.752;2022-10-17T12:22:02;100467.13;;;22.64;28.67
10948;BME280;5526;42.070;24.752;2022-10-17T12:24:37;100394.53;;;22.55;29.08
10948;BME280;5526;42.070;24.752;2022-10-17T12:27:32;100444.94;;;23.12;29.31
10948;BME280;5526;42.070;24.752;2022-10-17T12:30:02;100443.38;;;22.71;29.58
10948;BME280;5526;42.070;24.752;2022-10-17T12:32:31;100457.88;;;22.56;30.10
10948;BME280;5526;42.070;24.752;2022-10-17T12:34:59;100451.31;;;22.62;29.96
10948;BME280;5526;42.070;24.752;2022-10-17T12:40:48;100414.53;;;22.49;30.24
10948;BME280;5526;42.070;24.752;2022-10-17T12:43:46;100405.38;;;22.50;29.68
10948;BME280;5526;42.070;24.752;2022-10-17T12:46:43;100413.50;;;22.45;29.83
10948;BME280;5526;42.070;24.752;2022-10-17T12:49:39;100450.53;;;22.89;29.63
10948;BME280;5526;42.070;24.752;2022-10-17T12:55:11;100408.09;;;22.77;29.90
10948;BME280;5526;42.070;24.752;2022-10-17T12:57:43;100401.13;;;22.63;29.83
10948;BME280;5526;42.070;24.752;2022-10-17T13:00:20;100445.16;;;22.75;29.92
10948;BME280;5526;42.070;24.752;2022-10-17T13:02:50;100411.28;;;22.52;30.21
10948;BME280;5526;42.070;24.752;2022-10-17T13:05:24;100408.28;;;22.22;29.78
10948;BME280;5526;42.070;24.752;2022-10-17T13:07:54;100386.63;;;22.05;30.21
10948;BME280;5526;42.070;24.752;2022-10-17T13:10:24;100404.09;;;22.02;30.78
10948;BME280;5526;42.070;24.752;2022-10-17T13:12:59;100461.28;;;22.43;30.69
10948;BME280;5526;42.070;24.752;2022-10-17T13:15:29;100397.28;;;22.23;30.28
10948;BME280;5526;42.070;24.752;2022-10-17T13:17:58;100403.94;;;22.26;30.50
10948;BME280;5526;42.070;24.752;2022-10-17T13:20:27;100436.16;;;22.39;30.77
10948;BME280;5526;42.070;24.752;2022-10-17T13:22:56;100415.28;;;22.23;30.89
10948;BME280;5526;42.070;24.752;2022-10-17T13:25:26;100422.44;;;22.41;31.25
10948;BME280;5526;42.070;24.752;2022-10-17T13:28:10;100405.75;;;22.44;30.63
10948;BME280;5526;42.070;24.752;2022-10-17T13:30:45;100402.84;;;22.27;30.81